Staalbas — LNXH — position and weather

sailwx.info

Track history (hours):
 
Tides and Currents Weather Stations Pressure Air Temp Water Temp Dewpoint Dewpoint Depression Visibility Wind Speed Wind Dir Waves Ship Positions

Staalbas

Last reported at 2018-Jul-19 04:57 UTC. Time now 2018-Jul-21 09:30 UTC.
Position N 70°42' E 019°10'.

Length 58 m; draft 5.8 m.

Type: Fishing. MMSI: 257281000.

Date/timePositionNaut miles runAvg speedWind from/ knotsBaromVisibWave heightAir tempDewpointWater temp
2018-Jul-19 04:57N 70°42' E 019°10'4 8.9
2018-Jul-19 04:30N 70°38' E 019°14'4 8.9
2018-Jul-19 04:00N 70°34' E 019°17'4 8.5
2018-Jul-19 03:31N 70°30' E 019°21'5 9.0
2018-Jul-19 03:00N 70°25' E 019°21'4 8.9
2018-Jul-19 02:30N 70°21' E 019°23'4 8.5
2018-Jul-19 02:01N 70°17' E 019°27'4 8.9
2018-Jul-19 01:30N 70°12' E 019°29'4 9.0
2018-Jul-19 01:00N 70°08' E 019°36'5 9.1
2018-Jul-19 00:29N 70°04' E 019°40'4 9.2
2018-Jul-19 00:00N 69°59' E 019°42'5 9.0
2018-Jul-18 23:30N 69°56' E 019°33'5 9.6
2018-Jul-18 23:00N 69°52' E 019°25'5 9.3
2018-Jul-18 22:30N 69°48' E 019°18'5 9.1
2018-Jul-18 22:00N 69°46' E 019°07'4 9.0
2018-Jul-18 21:30N 69°42' E 019°03'3 5.7
2018-Jul-18 21:00N 69°39' E 018°58'0 0.0
2018-Jul-18 20:31N 69°39' E 018°58'0 0.0
2018-Jul-18 20:00N 69°39' E 018°58'0 0.0
2018-Jul-18 19:30N 69°39' E 018°58'0 1.0
2018-Jul-18 19:00N 69°39' E 018°59'0 0.0
2018-Jul-18 18:31N 69°39' E 018°59'0 0.0
2018-Jul-18 18:00N 69°39' E 018°59'0 0.0
2018-Jul-18 17:31N 69°39' E 018°59'0 0.0
2018-Jul-18 17:01N 69°39' E 018°59'0 0.0
2018-Jul-18 16:30N 69°39' E 018°59'0 0.0
2018-Jul-18 16:00N 69°39' E 018°59'0 0.0
2018-Jul-18 15:30N 69°39' E 018°59'0 0.0
2018-Jul-18 15:01N 69°39' E 018°59'0 0.0
2018-Jul-18 14:30N 69°39' E 018°59'0 0.0
2018-Jul-18 13:30N 69°39' E 018°59'0 0.0
2018-Jul-18 13:00N 69°39' E 018°59'0 0.0
2018-Jul-18 12:30N 69°39' E 018°59'0 0.0
2018-Jul-18 12:00N 69°39' E 018°59'0 0.0
2018-Jul-18 11:30N 69°39' E 018°59'0 0.0
2018-Jul-18 10:30N 69°39' E 018°59'0 0.0
2018-Jul-18 10:01N 69°39' E 018°59'0 0.0
2018-Jul-18 09:30N 69°39' E 018°59'0 0.0
2018-Jul-18 09:00N 69°39' E 018°59'0 0.0
2018-Jul-18 08:29N 69°39' E 018°59'0 0.0
2018-Jul-18 07:59N 69°39' E 018°59'0 0.0
2018-Jul-18 07:30N 69°39' E 018°59'0 0.0
2018-Jul-18 07:00N 69°39' E 018°59'0 0.0
2018-Jul-18 06:30N 69°39' E 018°59'0 0.0
2018-Jul-18 06:00N 69°39' E 018°59'0 0.0
2018-Jul-18 05:30N 69°39' E 018°59'0 0.0
2018-Jul-18 04:59N 69°39' E 018°59'0 0.0
2018-Jul-18 04:30N 69°39' E 018°59'0 0.0
2018-Jul-18 04:00N 69°39' E 018°59'0 0.0
2018-Jul-18 03:30N 69°39' E 018°59'0 0.0
2018-Jul-18 03:00N 69°39' E 018°59'0 0.0
2018-Jul-18 02:29N 69°39' E 018°59'0 0.0
2018-Jul-18 02:00N 69°39' E 018°59'0 0.0
2018-Jul-18 01:29N 69°39' E 018°59'0 0.0
2018-Jul-18 01:01N 69°39' E 018°59'0 0.0
2018-Jul-18 00:30N 69°39' E 018°59'0 0.0
2018-Jul-18 00:00N 69°39' E 018°59'0 0.0
2018-Jul-17 23:30N 69°39' E 018°59'0 0.0
2018-Jul-17 23:00N 69°39' E 018°59'0 0.0
2018-Jul-17 22:30N 69°39' E 018°59'0 0.0
2018-Jul-17 22:00N 69°39' E 018°59'0 0.0
2018-Jul-17 21:30N 69°39' E 018°59'0 0.0
2018-Jul-17 21:00N 69°39' E 018°59'0 0.0
2018-Jul-17 20:30N 69°39' E 018°59'0 0.0
2018-Jul-17 20:01N 69°39' E 018°59'0 0.0
2018-Jul-17 19:30N 69°39' E 018°59'0 0.0
2018-Jul-17 19:00N 69°39' E 018°59'0 0.0
2018-Jul-17 18:30N 69°39' E 018°59'0 0.0
2018-Jul-17 18:00N 69°39' E 018°59'0 0.0
2018-Jul-17 17:30N 69°39' E 018°59'0 0.0
2018-Jul-17 17:00N 69°39' E 018°59'0 0.0
2018-Jul-17 16:31N 69°39' E 018°59'0 0.0
2018-Jul-17 16:00N 69°39' E 018°59'0 0.0
2018-Jul-17 15:30N 69°39' E 018°59'0 0.0
2018-Jul-17 14:59N 69°39' E 018°59'0 0.0
2018-Jul-17 14:30N 69°39' E 018°59'0 0.0
2018-Jul-17 14:00N 69°39' E 018°59'0 0.0
2018-Jul-17 13:30N 69°39' E 018°59'0 0.0
2018-Jul-17 13:00N 69°39' E 018°59'0 0.0
2018-Jul-17 12:31N 69°39' E 018°59'0 0.0
2018-Jul-17 12:00N 69°39' E 018°59'0 0.0
2018-Jul-17 11:30N 69°39' E 018°59'0 0.0
2018-Jul-17 11:01N 69°39' E 018°59'0 0.0
2018-Jul-17 10:30N 69°39' E 018°59'0 0.0
2018-Jul-17 10:00N 69°39' E 018°59'0 0.0
2018-Jul-17 09:30N 69°39' E 018°59'0 0.0
2018-Jul-17 09:00N 69°39' E 018°59'0 0.0
2018-Jul-17 08:30N 69°39' E 018°59'0 0.1
2018-Jul-17 08:00N 69°39' E 018°59'0 0.0
2018-Jul-17 07:30N 69°39' E 018°59'0 0.0
2018-Jul-17 07:00N 69°39' E 018°59'0 0.0
2018-Jul-17 06:31N 69°39' E 018°59'0 0.0
2018-Jul-17 06:00N 69°39' E 018°59'0 0.0
2018-Jul-17 05:30N 69°39' E 018°59'0 0.0
2018-Jul-17 05:01N 69°39' E 018°59'0 0.0
2018-Jul-17 04:29N 69°39' E 018°59'0 0.0
2018-Jul-17 04:00N 69°39' E 018°59'0 0.0
2018-Jul-17 03:29N 69°39' E 018°59'0 0.0
2018-Jul-17 03:00N 69°39' E 018°59'0 0.0
2018-Jul-17 02:30N 69°39' E 018°59'0 0.0
2018-Jul-17 02:00N 69°39' E 018°59'0 0.0
2018-Jul-17 01:30N 69°39' E 018°59'0 0.0
2018-Jul-17 01:00N 69°39' E 018°59'0 0.0
2018-Jul-17 00:29N 69°39' E 018°59'0 0.0
2018-Jul-16 23:30N 69°39' E 018°59'0 0.0
2018-Jul-16 23:00N 69°39' E 018°59'0 0.0
2018-Jul-16 22:30N 69°39' E 018°59'0 0.0
2018-Jul-16 22:00N 69°39' E 018°59'0 0.0
2018-Jul-16 21:31N 69°39' E 018°59'0 0.0
2018-Jul-16 20:59N 69°39' E 018°59'0 0.0
2018-Jul-16 20:30N 69°39' E 018°59'0 0.0
2018-Jul-16 20:00N 69°39' E 018°59'0 0.0
2018-Jul-16 19:30N 69°39' E 018°59'0 0.0
2018-Jul-16 19:00N 69°39' E 018°59'0 0.0
2018-Jul-16 18:30N 69°39' E 018°59'0 0.0
2018-Jul-16 18:00N 69°39' E 018°59'0 0.0
2018-Jul-16 17:30N 69°39' E 018°59'0 0.0
2018-Jul-16 17:00N 69°39' E 018°59'0 0.0
2018-Jul-16 16:30N 69°39' E 018°59'0 0.0
2018-Jul-16 16:00N 69°39' E 018°59'0 0.0
2018-Jul-16 15:29N 69°39' E 018°59'0 0.0
2018-Jul-16 15:00N 69°39' E 018°59'0 0.0
2018-Jul-16 14:30N 69°39' E 018°59'0 0.0
2018-Jul-16 14:01N 69°39' E 018°59'0 0.0
2018-Jul-16 13:30N 69°39' E 018°59'0 0.0
2018-Jul-16 12:59N 69°39' E 018°59'0 0.0
2018-Jul-16 12:30N 69°39' E 018°59'0 0.0
2018-Jul-16 12:01N 69°39' E 018°59'0 0.0
2018-Jul-16 11:30N 69°39' E 018°59'0 0.0
2018-Jul-16 11:00N 69°39' E 018°59'0 0.0
2018-Jul-16 10:31N 69°39' E 018°59'0 0.0
2018-Jul-16 10:01N 69°39' E 018°59'0 0.0
2018-Jul-16 09:30N 69°39' E 018°59'0 0.0
2018-Jul-16 09:00N 69°39' E 018°59'0 0.0
2018-Jul-16 08:30N 69°39' E 018°59'0 0.0
2018-Jul-16 08:00N 69°39' E 018°59'0 0.0
2018-Jul-16 07:30N 69°39' E 018°59'0 0.0
2018-Jul-16 07:00N 69°39' E 018°59'0 0.0
2018-Jul-16 06:29N 69°39' E 018°59'0 0.0
2018-Jul-16 06:00N 69°39' E 018°59'0 0.0
2018-Jul-16 05:30N 69°39' E 018°59'0 0.0
2018-Jul-16 05:00N 69°39' E 018°59'0 0.0
2018-Jul-16 04:30N 69°39' E 018°59'0 0.0
2018-Jul-16 04:01N 69°39' E 018°59'0 0.0
2018-Jul-16 03:31N 69°39' E 018°59'0 0.0
2018-Jul-16 03:01N 69°39' E 018°59'0 0.0
2018-Jul-16 02:30N 69°39' E 018°59'0 0.0
2018-Jul-16 02:00N 69°39' E 018°59'0 0.0
2018-Jul-16 01:29N 69°39' E 018°59'0 0.0
2018-Jul-16 01:00N 69°39' E 018°59'0 0.0
2018-Jul-16 00:30N 69°39' E 018°59'0 0.0
2018-Jul-16 00:00N 69°39' E 018°59'0 0.0
2018-Jul-15 23:28N 69°39' E 018°59'0 0.0
2018-Jul-15 23:01N 69°39' E 018°59'0 0.0
2018-Jul-15 22:30N 69°39' E 018°59'0 0.0
2018-Jul-15 22:00N 69°39' E 018°59'0 0.0
2018-Jul-15 21:29N 69°39' E 018°59'0 0.0
2018-Jul-15 21:00N 69°39' E 018°59'0 0.0
2018-Jul-15 20:31N 69°39' E 018°59'0 0.0
2018-Jul-15 20:00N 69°39' E 018°59'0 0.0
2018-Jul-15 19:30N 69°39' E 018°59'0 0.0
2018-Jul-15 19:00N 69°39' E 018°59'0 0.0
2018-Jul-15 18:31N 69°39' E 018°59'0 0.0
2018-Jul-15 18:00N 69°39' E 018°59'0 0.0
2018-Jul-15 17:30N 69°39' E 018°59'0 0.0
2018-Jul-15 17:00N 69°39' E 018°59'0 0.0
2018-Jul-15 16:30N 69°39' E 018°59'0 0.0
2018-Jul-15 16:00N 69°39' E 018°59'0 0.0
2018-Jul-15 15:30N 69°39' E 018°59'0 0.0
2018-Jul-15 15:00N 69°39' E 018°59'0 0.0
2018-Jul-15 14:30N 69°39' E 018°59'0 0.0
2018-Jul-15 14:01N 69°39' E 018°59'0 0.0
2018-Jul-15 13:30N 69°39' E 018°59'0 0.0
2018-Jul-15 13:00N 69°39' E 018°59'0 0.0
2018-Jul-15 12:30N 69°39' E 018°59'0 0.0
2018-Jul-15 11:59N 69°39' E 018°59'0 0.0
2018-Jul-15 11:30N 69°39' E 018°59'0 0.0
2018-Jul-15 11:00N 69°39' E 018°59'0 0.0
2018-Jul-15 10:30N 69°39' E 018°59'0 0.0
2018-Jul-15 10:00N 69°39' E 018°59'0 0.0
2018-Jul-15 09:30N 69°39' E 018°59'0 0.0
2018-Jul-15 09:00N 69°39' E 018°59'0 0.0
2018-Jul-15 08:30N 69°39' E 018°59'0 0.0
2018-Jul-15 07:59N 69°39' E 018°59'0 0.0
2018-Jul-15 07:30N 69°39' E 018°59'0 0.0
2018-Jul-15 07:00N 69°39' E 018°59'0 0.0
2018-Jul-15 06:30N 69°39' E 018°59'0 0.0
2018-Jul-15 06:00N 69°39' E 018°59'0 0.0
2018-Jul-15 05:30N 69°39' E 018°59'0 0.0
2018-Jul-15 05:00N 69°39' E 018°59'0 0.0
2018-Jul-15 04:30N 69°39' E 018°59'0 0.0
2018-Jul-15 04:00N 69°39' E 018°59'0 0.0
2018-Jul-15 03:28N 69°39' E 018°59'0 0.0
2018-Jul-15 03:00N 69°39' E 018°59'0 0.0
2018-Jul-15 02:30N 69°39' E 018°59'0 0.0
2018-Jul-15 02:00N 69°39' E 018°59'0 0.0
2018-Jul-15 01:29N 69°39' E 018°59'0 0.0
2018-Jul-15 01:00N 69°39' E 018°59'0 0.0
2018-Jul-15 00:30N 69°39' E 018°59'0 0.0
2018-Jul-15 00:00N 69°39' E 018°59'0 0.0
2018-Jul-14 23:30N 69°39' E 018°59'0 0.0
2018-Jul-14 23:00N 69°39' E 018°59'0 0.0
2018-Jul-14 22:30N 69°39' E 018°59'0 0.0
2018-Jul-14 21:59N 69°39' E 018°59'0 0.0
2018-Jul-14 21:30N 69°39' E 018°59'0 0.0
2018-Jul-14 21:00N 69°39' E 018°59'0 0.0
2018-Jul-14 20:30N 69°39' E 018°59'0 0.0
2018-Jul-14 20:01N 69°39' E 018°59'0 0.0
2018-Jul-14 19:30N 69°39' E 018°59'0 0.0
2018-Jul-14 19:00N 69°39' E 018°59'0 0.0
2018-Jul-14 18:29N 69°39' E 018°59'0 0.0
2018-Jul-14 18:00N 69°39' E 018°59'0 0.0
2018-Jul-14 17:30N 69°39' E 018°59'0 0.0
2018-Jul-14 16:59N 69°39' E 018°59'0 0.0
2018-Jul-14 16:30N 69°39' E 018°59'0 0.0
2018-Jul-14 16:00N 69°39' E 018°59'0 0.0
2018-Jul-14 15:30N 69°39' E 018°59'0 0.0
2018-Jul-14 15:00N 69°39' E 018°59'0 0.0
2018-Jul-14 14:00N 69°39' E 018°59'0 0.0
2018-Jul-14 13:30N 69°39' E 018°59'0 0.0
2018-Jul-14 13:00N 69°39' E 018°59'0 0.0
2018-Jul-14 12:30N 69°39' E 018°59'0 0.0
2018-Jul-14 12:01N 69°39' E 018°59'0 0.0
2018-Jul-14 11:29N 69°39' E 018°59'0 0.0
2018-Jul-14 11:01N 69°39' E 018°59'0 0.0
2018-Jul-14 10:30N 69°39' E 018°59'0 0.0
2018-Jul-14 10:00N 69°39' E 018°59'0 0.0
2018-Jul-14 09:29N 69°39' E 018°59'0 0.0
2018-Jul-14 09:00N 69°39' E 018°59'0 0.0
2018-Jul-14 08:30N 69°39' E 018°59'0 0.0
2018-Jul-14 08:00N 69°39' E 018°59'0 0.0
2018-Jul-14 07:30N 69°39' E 018°59'0 0.0
2018-Jul-14 07:00N 69°39' E 018°59'0 0.0
2018-Jul-14 06:29N 69°39' E 018°59'0 0.0
2018-Jul-14 06:00N 69°39' E 018°59'0 0.0
2018-Jul-14 05:30N 69°39' E 018°59'0 0.0
2018-Jul-14 05:00N 69°39' E 018°59'0 0.0
2018-Jul-14 04:30N 69°39' E 018°59'0 0.0
2018-Jul-14 04:00N 69°39' E 018°59'0 0.0
2018-Jul-14 03:31N 69°39' E 018°59'0 0.0
2018-Jul-14 03:00N 69°39' E 018°59'0 0.0
2018-Jul-14 02:30N 69°39' E 018°59'0 0.0
2018-Jul-14 01:59N 69°39' E 018°59'0 0.0
2018-Jul-14 01:30N 69°39' E 018°59'0 0.0
2018-Jul-14 01:00N 69°39' E 018°59'0 0.0
2018-Jul-14 00:31N 69°39' E 018°59'0 0.0
2018-Jul-14 00:00N 69°39' E 018°59'0 0.0
2018-Jul-13 23:30N 69°39' E 018°59'0 0.0
2018-Jul-13 23:00N 69°39' E 018°59'0 0.0
2018-Jul-13 22:30N 69°39' E 018°59'0 0.0
2018-Jul-13 22:00N 69°39' E 018°59'0 0.0
2018-Jul-13 21:31N 69°39' E 018°59'0 0.0
2018-Jul-13 21:00N 69°39' E 018°59'0 0.0
2018-Jul-13 20:29N 69°39' E 018°59'0 0.0
2018-Jul-13 20:00N 69°39' E 018°59'0 0.0
2018-Jul-13 19:30N 69°39' E 018°59'0 0.0
2018-Jul-13 18:59N 69°39' E 018°59'0 0.0
2018-Jul-13 18:30N 69°39' E 018°59'0 0.0
2018-Jul-13 18:00N 69°39' E 018°59'0 0.0
2018-Jul-13 17:30N 69°39' E 018°59'0 0.0
2018-Jul-13 17:00N 69°39' E 018°59'0 0.0
2018-Jul-13 16:30N 69°39' E 018°59'0 0.0
2018-Jul-13 16:00N 69°39' E 018°59'0 0.0
2018-Jul-13 15:30N 69°39' E 018°59'0 0.0
2018-Jul-13 15:00N 69°39' E 018°59'0 0.0
2018-Jul-13 14:01N 69°39' E 018°59'0 0.0
2018-Jul-13 13:29N 69°39' E 018°59'0 0.0
2018-Jul-13 13:00N 69°39' E 018°59'0 0.0
2018-Jul-13 12:29N 69°39' E 018°59'0 0.0
2018-Jul-13 12:00N 69°39' E 018°59'0 0.0
2018-Jul-13 11:30N 69°39' E 018°59'0 0.0
2018-Jul-13 11:00N 69°39' E 018°59'0 0.0
2018-Jul-13 10:31N 69°39' E 018°59'0 0.0
2018-Jul-13 10:00N 69°39' E 018°59'0 0.0
2018-Jul-13 09:31N 69°39' E 018°59'0 0.0
2018-Jul-13 09:00N 69°39' E 018°59'0 0.0
2018-Jul-13 08:30N 69°39' E 018°59'0 0.0
2018-Jul-13 08:00N 69°39' E 018°59'0 0.0
2018-Jul-13 07:30N 69°39' E 018°59'0 0.0
2018-Jul-13 07:00N 69°39' E 018°59'0 0.0
2018-Jul-13 06:29N 69°39' E 018°59'0 0.0
2018-Jul-13 06:00N 69°39' E 018°59'0 0.0
2018-Jul-13 05:30N 69°39' E 018°59'0 0.0
2018-Jul-13 05:00N 69°39' E 018°59'0 0.0
2018-Jul-13 04:30N 69°39' E 018°59'0 0.0
2018-Jul-13 04:00N 69°39' E 018°59'0 0.0
2018-Jul-13 03:30N 69°39' E 018°59'0 0.0
2018-Jul-13 03:01N 69°39' E 018°59'0 0.0
2018-Jul-13 02:30N 69°39' E 018°59'0 0.0
2018-Jul-13 02:00N 69°39' E 018°59'0 0.0
2018-Jul-13 01:30N 69°39' E 018°59'0 0.0
2018-Jul-13 01:00N 69°39' E 018°59'0 0.0
2018-Jul-13 00:31N 69°39' E 018°59'0 0.0
2018-Jul-13 00:00N 69°39' E 018°59'0 0.0
2018-Jul-12 23:30N 69°39' E 018°59'0 0.0
2018-Jul-12 23:01N 69°39' E 018°59'0 0.0
2018-Jul-12 22:30N 69°39' E 018°59'0 0.0
2018-Jul-12 22:00N 69°39' E 018°59'0 0.0
2018-Jul-12 21:30N 69°39' E 018°59'0 0.0
2018-Jul-12 21:00N 69°39' E 018°59'0 0.0
2018-Jul-12 20:30N 69°39' E 018°59'0 0.0
2018-Jul-12 20:00N 69°39' E 018°59'0 0.0
2018-Jul-12 19:30N 69°39' E 018°59'0 0.0
2018-Jul-12 19:00N 69°39' E 018°59'0 0.0
2018-Jul-12 18:29N 69°39' E 018°59'0 0.0
2018-Jul-12 18:00N 69°39' E 018°59'0 0.0
2018-Jul-12 17:30N 69°39' E 018°59'0 0.0
2018-Jul-12 17:01N 69°39' E 018°59'0 0.0
2018-Jul-12 16:31N 69°39' E 018°59'0 0.0
2018-Jul-12 16:01N 69°39' E 018°59'0 0.0
2018-Jul-12 15:31N 69°39' E 018°59'0 0.0
2018-Jul-12 15:00N 69°39' E 018°59'0 0.0
2018-Jul-12 14:30N 69°39' E 018°59'0 0.0
2018-Jul-12 13:59N 69°39' E 018°59'0 0.0
2018-Jul-12 13:30N 69°39' E 018°59'0 0.0
2018-Jul-12 13:00N 69°39' E 018°59'0 0.0
2018-Jul-12 12:30N 69°39' E 018°59'0 0.0
2018-Jul-12 12:00N 69°39' E 018°59'0 0.0
2018-Jul-12 11:28N 69°39' E 018°59'0 0.0
2018-Jul-12 11:00N 69°39' E 018°59'0 0.0
2018-Jul-12 10:30N 69°39' E 018°59'0 0.0
2018-Jul-12 10:01N 69°39' E 018°59'0 0.0
2018-Jul-12 09:30N 69°39' E 018°59'0 0.0
2018-Jul-12 09:00N 69°39' E 018°59'0 0.0
2018-Jul-12 08:30N 69°39' E 018°59'0 0.0
2018-Jul-12 08:01N 69°39' E 018°59'0 0.0
2018-Jul-12 07:30N 69°39' E 018°59'0 0.0
2018-Jul-12 07:00N 69°39' E 018°59'0 0.0
2018-Jul-12 06:30N 69°39' E 018°59'0 0.0
2018-Jul-12 06:00N 69°39' E 018°59'0 0.0
2018-Jul-12 05:30N 69°39' E 018°59'0 0.0
2018-Jul-12 04:59N 69°39' E 018°59'0 0.0
2018-Jul-12 04:30N 69°39' E 018°59'0 0.0
2018-Jul-12 04:00N 69°39' E 018°59'0 0.0
2018-Jul-12 03:31N 69°39' E 018°59'0 0.0
2018-Jul-12 03:00N 69°39' E 018°59'0 0.0
2018-Jul-12 02:30N 69°39' E 018°59'0 0.0
2018-Jul-12 02:00N 69°39' E 018°59'0 0.0
2018-Jul-12 01:30N 69°39' E 018°59'0 0.0
2018-Jul-12 01:00N 69°39' E 018°59'0 0.0
2018-Jul-12 00:30N 69°39' E 018°59'0 0.0
2018-Jul-12 00:00N 69°39' E 018°59'0 0.0
2018-Jul-11 23:30N 69°39' E 018°59'0 0.0
2018-Jul-11 23:01N 69°39' E 018°59'0 0.0
2018-Jul-11 22:30N 69°39' E 018°59'0 0.0
2018-Jul-11 22:00N 69°39' E 018°59'0 0.0
2018-Jul-11 21:29N 69°39' E 018°59'0 0.0
2018-Jul-11 21:00N 69°39' E 018°59'0 0.0
2018-Jul-11 20:30N 69°39' E 018°59'0 0.0
2018-Jul-11 20:00N 69°39' E 018°59'0 0.0
2018-Jul-11 19:30N 69°39' E 018°59'0 0.0
2018-Jul-11 19:00N 69°39' E 018°59'0 0.0
2018-Jul-11 18:29N 69°39' E 018°59'0 0.0
2018-Jul-11 18:00N 69°39' E 018°59'0 0.0
2018-Jul-11 17:30N 69°39' E 018°59'0 0.0
2018-Jul-11 17:00N 69°39' E 018°59'0 0.0
2018-Jul-11 16:30N 69°39' E 018°59'0 0.0
2018-Jul-11 15:59N 69°39' E 018°59'0 0.0
2018-Jul-11 15:29N 69°39' E 018°59'0 0.0
2018-Jul-11 15:00N 69°39' E 018°59'0 0.0
2018-Jul-11 14:30N 69°39' E 018°59'0 0.0
2018-Jul-11 14:01N 69°39' E 018°59'0 0.0
2018-Jul-11 13:30N 69°39' E 018°59'0 0.0
2018-Jul-11 13:00N 69°39' E 018°59'0 0.0
2018-Jul-11 12:30N 69°39' E 018°59'0 0.0
2018-Jul-11 12:00N 69°39' E 018°59'0 0.0
2018-Jul-11 11:30N 69°39' E 018°59'0 0.0
2018-Jul-11 10:56N 69°39' E 018°59'0 0.0
2018-Jul-11 10:30N 69°39' E 018°59'0 0.0
2018-Jul-11 10:00N 69°39' E 018°59'0 0.0
2018-Jul-11 09:31N 69°39' E 018°59'0 0.0
2018-Jul-11 09:00N 69°39' E 018°59'0 0.0
2018-Jul-11 08:30N 69°39' E 018°59'0 0.0
2018-Jul-11 07:59N 69°39' E 018°59'0 0.0
2018-Jul-11 07:30N 69°39' E 018°59'0 0.0
2018-Jul-11 07:00N 69°39' E 018°59'0 0.0
2018-Jul-11 06:30N 69°39' E 018°59'0 0.0
2018-Jul-11 06:00N 69°39' E 018°59'0 0.0
2018-Jul-11 05:30N 69°39' E 018°59'0 0.0
2018-Jul-11 05:00N 69°39' E 018°59'0 0.0
2018-Jul-11 04:30N 69°39' E 018°59'0 0.0
2018-Jul-11 04:00N 69°39' E 018°59'0 0.0
2018-Jul-11 03:31N 69°39' E 018°59'0 0.0
2018-Jul-11 03:01N 69°39' E 018°59'0 0.0
2018-Jul-11 02:30N 69°39' E 018°59'0 0.0
2018-Jul-11 02:00N 69°39' E 018°59'0 0.0
2018-Jul-11 01:30N 69°39' E 018°59'0 0.0
2018-Jul-11 01:00N 69°39' E 018°59'0 0.0
2018-Jul-11 00:29N 69°39' E 018°59'0 0.0
2018-Jul-11 00:00N 69°39' E 018°59'0 0.0
2018-Jul-10 23:30N 69°39' E 018°59'0 0.0
2018-Jul-10 23:00N 69°39' E 018°59'0 0.0
2018-Jul-10 22:30N 69°39' E 018°59'0 0.0
2018-Jul-10 22:00N 69°39' E 018°59'0 0.0
2018-Jul-10 21:30N 69°39' E 018°59'0 0.0
2018-Jul-10 21:00N 69°39' E 018°59'0 0.0
2018-Jul-10 20:30N 69°39' E 018°59'0 0.0
2018-Jul-10 20:00N 69°39' E 018°59'0 0.0
2018-Jul-10 19:30N 69°39' E 018°59'0 0.0
2018-Jul-10 19:00N 69°39' E 018°59'0 0.0
2018-Jul-10 18:31N 69°39' E 018°59'0 0.0
2018-Jul-10 18:00N 69°39' E 018°59'0 0.0
2018-Jul-10 17:30N 69°39' E 018°59'0 0.0
2018-Jul-10 17:00N 69°39' E 018°59'0 0.0
2018-Jul-10 16:30N 69°39' E 018°59'0 0.0
2018-Jul-10 16:00N 69°39' E 018°59'0 0.0
2018-Jul-10 15:30N 69°39' E 018°59'0 0.0
2018-Jul-10 15:00N 69°39' E 018°59'0 0.0
2018-Jul-10 14:30N 69°39' E 018°59'0 0.0
2018-Jul-10 14:00N 69°39' E 018°59'0 0.0
2018-Jul-10 13:30N 69°39' E 018°59'0 0.0
2018-Jul-10 13:00N 69°39' E 018°59'0 0.0
2018-Jul-10 12:31N 69°39' E 018°59'0 0.0
2018-Jul-10 11:59N 69°39' E 018°59'0 0.0
2018-Jul-10 11:30N 69°39' E 018°59'0 0.0
2018-Jul-10 11:00N 69°39' E 018°59'0 0.0
2018-Jul-10 10:30N 69°39' E 018°59'0 0.0
2018-Jul-10 10:00N 69°39' E 018°59'0 0.0
2018-Jul-10 09:30N 69°39' E 018°59'0 0.0
2018-Jul-10 09:00N 69°39' E 018°59'0 0.0
2018-Jul-10 08:30N 69°39' E 018°59'0 0.0
2018-Jul-10 07:59N 69°39' E 018°59'0 0.0
2018-Jul-10 07:30N 69°39' E 018°59'0 0.0
2018-Jul-10 07:00N 69°39' E 018°59'0 0.0
2018-Jul-10 06:30N 69°39' E 018°59'0 0.0
2018-Jul-10 06:01N 69°39' E 018°59'0 0.0
2018-Jul-10 05:30N 69°39' E 018°59'0 0.0
2018-Jul-10 05:01N 69°39' E 018°59'0 0.0
2018-Jul-10 04:30N 69°39' E 018°59'0 0.0
2018-Jul-10 04:01N 69°39' E 018°59'0 0.0
2018-Jul-10 03:30N 69°39' E 018°59'0 0.0
2018-Jul-10 03:00N 69°39' E 018°59'0 0.0
2018-Jul-10 02:29N 69°39' E 018°59'0 0.0
2018-Jul-10 02:00N 69°39' E 018°59'0 0.0
2018-Jul-10 01:30N 69°39' E 018°59'0 0.0
2018-Jul-10 01:01N 69°39' E 018°59'0 0.0
2018-Jul-10 00:30N 69°39' E 018°59'0 0.0
2018-Jul-10 00:00N 69°39' E 018°59'0 0.0
2018-Jul-09 23:30N 69°39' E 018°59'0 0.0
2018-Jul-09 23:00N 69°39' E 018°59'0 0.0
2018-Jul-09 22:30N 69°39' E 018°59'0 0.0
2018-Jul-09 22:00N 69°39' E 018°59'0 0.0
2018-Jul-09 21:30N 69°39' E 018°59'0 0.0
2018-Jul-09 20:59N 69°39' E 018°59'0 0.0
2018-Jul-09 20:30N 69°39' E 018°59'0 0.0
2018-Jul-09 20:00N 69°39' E 018°59'0 0.0
2018-Jul-09 19:30N 69°39' E 018°59'0 0.0
2018-Jul-09 19:00N 69°39' E 018°59'0 0.0
2018-Jul-09 18:29N 69°39' E 018°59'0 0.0
2018-Jul-09 17:59N 69°39' E 018°59'0 0.0
2018-Jul-09 17:30N 69°39' E 018°59'0 0.0
2018-Jul-09 17:00N 69°39' E 018°59'0 0.0
2018-Jul-09 16:30N 69°39' E 018°59'0 0.0
2018-Jul-09 16:00N 69°39' E 018°59'0 0.0
2018-Jul-09 15:31N 69°39' E 018°59'0 0.0
2018-Jul-09 14:58N 69°39' E 018°59'0 0.0
2018-Jul-09 14:30N 69°39' E 018°59'0 0.0
2018-Jul-09 14:00N 69°39' E 018°59'0 0.0
2018-Jul-09 13:30N 69°39' E 018°59'0 0.0
2018-Jul-09 13:00N 69°39' E 018°59'0 0.9
2018-Jul-09 12:30N 69°39' E 018°58'0 0.0
2018-Jul-09 12:00N 69°39' E 018°58'0 0.0
2018-Jul-09 11:30N 69°39' E 018°58'0 0.0
2018-Jul-09 11:00N 69°39' E 018°58'0 0.0
2018-Jul-09 10:30N 69°39' E 018°58'0 0.0
2018-Jul-09 10:00N 69°39' E 018°58'0 0.0
2018-Jul-09 09:30N 69°39' E 018°58'0 0.0
2018-Jul-09 09:00N 69°39' E 018°58'0 0.0
2018-Jul-09 08:30N 69°39' E 018°58'0 0.0
2018-Jul-09 08:01N 69°39' E 018°58'0 0.0
2018-Jul-09 07:30N 69°39' E 018°58'0 0.0
2018-Jul-09 07:00N 69°39' E 018°58'0 0.0
2018-Jul-09 06:30N 69°39' E 018°58'0 0.0
2018-Jul-09 05:59N 69°39' E 018°58'0 0.0
2018-Jul-09 05:30N 69°39' E 018°58'0 0.0
2018-Jul-09 05:01N 69°39' E 018°58'  
Track history (hours):
 
Tides and Currents Weather Stations Pressure Air Temp Water Temp Dewpoint Dewpoint Depression Visibility Wind Speed Wind Dir Waves Ship Positions

Staalbas

Last reported at 2018-Jul-19 04:57 UTC. Time now 2018-Jul-21 09:30 UTC.
Position N 70°42' E 019°10'.

Length 58 m; draft 5.8 m.

Type: Fishing. MMSI: 257281000.

Date/timePositionNaut miles runAvg speedWind from/ knotsBaromVisibWave heightAir tempDewpointWater temp
2018-Jul-19 04:57N 70°42' E 019°10'4 8.9
2018-Jul-19 04:30N 70°38' E 019°14'4 8.9
2018-Jul-19 04:00N 70°34' E 019°17'4 8.5
2018-Jul-19 03:31N 70°30' E 019°21'5 9.0
2018-Jul-19 03:00N 70°25' E 019°21'4 8.9
2018-Jul-19 02:30N 70°21' E 019°23'4 8.5
2018-Jul-19 02:01N 70°17' E 019°27'4 8.9
2018-Jul-19 01:30N 70°12' E 019°29'4 9.0
2018-Jul-19 01:00N 70°08' E 019°36'5 9.1
2018-Jul-19 00:29N 70°04' E 019°40'4 9.2
2018-Jul-19 00:00N 69°59' E 019°42'5 9.0
2018-Jul-18 23:30N 69°56' E 019°33'5 9.6
2018-Jul-18 23:00N 69°52' E 019°25'5 9.3
2018-Jul-18 22:30N 69°48' E 019°18'5 9.1
2018-Jul-18 22:00N 69°46' E 019°07'4 9.0
2018-Jul-18 21:30N 69°42' E 019°03'3 5.7
2018-Jul-18 21:00N 69°39' E 018°58'0 0.0
2018-Jul-18 20:31N 69°39' E 018°58'0 0.0
2018-Jul-18 20:00N 69°39' E 018°58'0 0.0
2018-Jul-18 19:30N 69°39' E 018°58'0 1.0
2018-Jul-18 19:00N 69°39' E 018°59'0 0.0
2018-Jul-18 18:31N 69°39' E 018°59'0 0.0
2018-Jul-18 18:00N 69°39' E 018°59'0 0.0
2018-Jul-18 17:31N 69°39' E 018°59'0 0.0
2018-Jul-18 17:01N 69°39' E 018°59'0 0.0
2018-Jul-18 16:30N 69°39' E 018°59'0 0.0
2018-Jul-18 16:00N 69°39' E 018°59'0 0.0
2018-Jul-18 15:30N 69°39' E 018°59'0 0.0
2018-Jul-18 15:01N 69°39' E 018°59'0 0.0
2018-Jul-18 14:30N 69°39' E 018°59'0 0.0
2018-Jul-18 13:30N 69°39' E 018°59'0 0.0
2018-Jul-18 13:00N 69°39' E 018°59'0 0.0
2018-Jul-18 12:30N 69°39' E 018°59'0 0.0
2018-Jul-18 12:00N 69°39' E 018°59'0 0.0
2018-Jul-18 11:30N 69°39' E 018°59'0 0.0
2018-Jul-18 10:30N 69°39' E 018°59'0 0.0
2018-Jul-18 10:01N 69°39' E 018°59'0 0.0
2018-Jul-18 09:30N 69°39' E 018°59'0 0.0
2018-Jul-18 09:00N 69°39' E 018°59'0 0.0
2018-Jul-18 08:29N 69°39' E 018°59'0 0.0
2018-Jul-18 07:59N 69°39' E 018°59'0 0.0
2018-Jul-18 07:30N 69°39' E 018°59'0 0.0
2018-Jul-18 07:00N 69°39' E 018°59'0 0.0
2018-Jul-18 06:30N 69°39' E 018°59'0 0.0
2018-Jul-18 06:00N 69°39' E 018°59'0 0.0
2018-Jul-18 05:30N 69°39' E 018°59'0 0.0
2018-Jul-18 04:59N 69°39' E 018°59'0 0.0
2018-Jul-18 04:30N 69°39' E 018°59'0 0.0
2018-Jul-18 04:00N 69°39' E 018°59'0 0.0
2018-Jul-18 03:30N 69°39' E 018°59'0 0.0
2018-Jul-18 03:00N 69°39' E 018°59'0 0.0
2018-Jul-18 02:29N 69°39' E 018°59'0 0.0
2018-Jul-18 02:00N 69°39' E 018°59'0 0.0
2018-Jul-18 01:29N 69°39' E 018°59'0 0.0
2018-Jul-18 01:01N 69°39' E 018°59'0 0.0
2018-Jul-18 00:30N 69°39' E 018°59'0 0.0
2018-Jul-18 00:00N 69°39' E 018°59'0 0.0
2018-Jul-17 23:30N 69°39' E 018°59'0 0.0
2018-Jul-17 23:00N 69°39' E 018°59'0 0.0
2018-Jul-17 22:30N 69°39' E 018°59'0 0.0
2018-Jul-17 22:00N 69°39' E 018°59'0 0.0
2018-Jul-17 21:30N 69°39' E 018°59'0 0.0
2018-Jul-17 21:00N 69°39' E 018°59'0 0.0
2018-Jul-17 20:30N 69°39' E 018°59'0 0.0
2018-Jul-17 20:01N 69°39' E 018°59'0 0.0
2018-Jul-17 19:30N 69°39' E 018°59'0 0.0
2018-Jul-17 19:00N 69°39' E 018°59'0 0.0
2018-Jul-17 18:30N 69°39' E 018°59'0 0.0
2018-Jul-17 18:00N 69°39' E 018°59'0 0.0
2018-Jul-17 17:30N 69°39' E 018°59'0 0.0
2018-Jul-17 17:00N 69°39' E 018°59'0 0.0
2018-Jul-17 16:31N 69°39' E 018°59'0 0.0
2018-Jul-17 16:00N 69°39' E 018°59'0 0.0
2018-Jul-17 15:30N 69°39' E 018°59'0 0.0
2018-Jul-17 14:59N 69°39' E 018°59'0 0.0
2018-Jul-17 14:30N 69°39' E 018°59'0 0.0
2018-Jul-17 14:00N 69°39' E 018°59'0 0.0
2018-Jul-17 13:30N 69°39' E 018°59'0 0.0
2018-Jul-17 13:00N 69°39' E 018°59'0 0.0
2018-Jul-17 12:31N 69°39' E 018°59'0 0.0
2018-Jul-17 12:00N 69°39' E 018°59'0 0.0
2018-Jul-17 11:30N 69°39' E 018°59'0 0.0
2018-Jul-17 11:01N 69°39' E 018°59'0 0.0
2018-Jul-17 10:30N 69°39' E 018°59'0 0.0
2018-Jul-17 10:00N 69°39' E 018°59'0 0.0
2018-Jul-17 09:30N 69°39' E 018°59'0 0.0
2018-Jul-17 09:00N 69°39' E 018°59'0 0.0
2018-Jul-17 08:30N 69°39' E 018°59'0 0.1
2018-Jul-17 08:00N 69°39' E 018°59'0 0.0
2018-Jul-17 07:30N 69°39' E 018°59'0 0.0
2018-Jul-17 07:00N 69°39' E 018°59'0 0.0
2018-Jul-17 06:31N 69°39' E 018°59'0 0.0
2018-Jul-17 06:00N 69°39' E 018°59'0 0.0
2018-Jul-17 05:30N 69°39' E 018°59'0 0.0
2018-Jul-17 05:01N 69°39' E 018°59'0 0.0
2018-Jul-17 04:29N 69°39' E 018°59'0 0.0
2018-Jul-17 04:00N 69°39' E 018°59'0 0.0
2018-Jul-17 03:29N 69°39' E 018°59'0 0.0
2018-Jul-17 03:00N 69°39' E 018°59'0 0.0
2018-Jul-17 02:30N 69°39' E 018°59'0 0.0
2018-Jul-17 02:00N 69°39' E 018°59'0 0.0
2018-Jul-17 01:30N 69°39' E 018°59'0 0.0
2018-Jul-17 01:00N 69°39' E 018°59'0 0.0
2018-Jul-17 00:29N 69°39' E 018°59'0 0.0
2018-Jul-16 23:30N 69°39' E 018°59'0 0.0
2018-Jul-16 23:00N 69°39' E 018°59'0 0.0
2018-Jul-16 22:30N 69°39' E 018°59'0 0.0
2018-Jul-16 22:00N 69°39' E 018°59'0 0.0
2018-Jul-16 21:31N 69°39' E 018°59'0 0.0
2018-Jul-16 20:59N 69°39' E 018°59'0 0.0
2018-Jul-16 20:30N 69°39' E 018°59'0 0.0
2018-Jul-16 20:00N 69°39' E 018°59'0 0.0
2018-Jul-16 19:30N 69°39' E 018°59'0 0.0
2018-Jul-16 19:00N 69°39' E 018°59'0 0.0
2018-Jul-16 18:30N 69°39' E 018°59'0 0.0
2018-Jul-16 18:00N 69°39' E 018°59'0 0.0
2018-Jul-16 17:30N 69°39' E 018°59'0 0.0
2018-Jul-16 17:00N 69°39' E 018°59'0 0.0
2018-Jul-16 16:30N 69°39' E 018°59'0 0.0
2018-Jul-16 16:00N 69°39' E 018°59'0 0.0
2018-Jul-16 15:29N 69°39' E 018°59'0 0.0
2018-Jul-16 15:00N 69°39' E 018°59'0 0.0
2018-Jul-16 14:30N 69°39' E 018°59'0 0.0
2018-Jul-16 14:01N 69°39' E 018°59'0 0.0
2018-Jul-16 13:30N 69°39' E 018°59'0 0.0
2018-Jul-16 12:59N 69°39' E 018°59'0 0.0
2018-Jul-16 12:30N 69°39' E 018°59'0 0.0
2018-Jul-16 12:01N 69°39' E 018°59'0 0.0
2018-Jul-16 11:30N 69°39' E 018°59'0 0.0
2018-Jul-16 11:00N 69°39' E 018°59'0 0.0
2018-Jul-16 10:31N 69°39' E 018°59'0 0.0
2018-Jul-16 10:01N 69°39' E 018°59'0 0.0
2018-Jul-16 09:30N 69°39' E 018°59'0 0.0
2018-Jul-16 09:00N 69°39' E 018°59'0 0.0
2018-Jul-16 08:30N 69°39' E 018°59'0 0.0
2018-Jul-16 08:00N 69°39' E 018°59'0 0.0
2018-Jul-16 07:30N 69°39' E 018°59'0 0.0
2018-Jul-16 07:00N 69°39' E 018°59'0 0.0
2018-Jul-16 06:29N 69°39' E 018°59'0 0.0
2018-Jul-16 06:00N 69°39' E 018°59'0 0.0
2018-Jul-16 05:30N 69°39' E 018°59'0 0.0
2018-Jul-16 05:00N 69°39' E 018°59'0 0.0
2018-Jul-16 04:30N 69°39' E 018°59'0 0.0
2018-Jul-16 04:01N 69°39' E 018°59'0 0.0
2018-Jul-16 03:31N 69°39' E 018°59'0 0.0
2018-Jul-16 03:01N 69°39' E 018°59'0 0.0
2018-Jul-16 02:30N 69°39' E 018°59'0 0.0
2018-Jul-16 02:00N 69°39' E 018°59'0 0.0
2018-Jul-16 01:29N 69°39' E 018°59'0 0.0
2018-Jul-16 01:00N 69°39' E 018°59'0 0.0
2018-Jul-16 00:30N 69°39' E 018°59'0 0.0
2018-Jul-16 00:00N 69°39' E 018°59'0 0.0
2018-Jul-15 23:28N 69°39' E 018°59'0 0.0
2018-Jul-15 23:01N 69°39' E 018°59'0 0.0
2018-Jul-15 22:30N 69°39' E 018°59'0 0.0
2018-Jul-15 22:00N 69°39' E 018°59'0 0.0
2018-Jul-15 21:29N 69°39' E 018°59'0 0.0
2018-Jul-15 21:00N 69°39' E 018°59'0 0.0
2018-Jul-15 20:31N 69°39' E 018°59'0 0.0
2018-Jul-15 20:00N 69°39' E 018°59'0 0.0
2018-Jul-15 19:30N 69°39' E 018°59'0 0.0
2018-Jul-15 19:00N 69°39' E 018°59'0 0.0
2018-Jul-15 18:31N 69°39' E 018°59'0 0.0
2018-Jul-15 18:00N 69°39' E 018°59'0 0.0
2018-Jul-15 17:30N 69°39' E 018°59'0 0.0
2018-Jul-15 17:00N 69°39' E 018°59'0 0.0
2018-Jul-15 16:30N 69°39' E 018°59'0 0.0
2018-Jul-15 16:00N 69°39' E 018°59'0 0.0
2018-Jul-15 15:30N 69°39' E 018°59'0 0.0
2018-Jul-15 15:00N 69°39' E 018°59'0 0.0
2018-Jul-15 14:30N 69°39' E 018°59'0 0.0
2018-Jul-15 14:01N 69°39' E 018°59'0 0.0
2018-Jul-15 13:30N 69°39' E 018°59'0 0.0
2018-Jul-15 13:00N 69°39' E 018°59'0 0.0
2018-Jul-15 12:30N 69°39' E 018°59'0 0.0
2018-Jul-15 11:59N 69°39' E 018°59'0 0.0
2018-Jul-15 11:30N 69°39' E 018°59'0 0.0
2018-Jul-15 11:00N 69°39' E 018°59'0 0.0
2018-Jul-15 10:30N 69°39' E 018°59'0 0.0
2018-Jul-15 10:00N 69°39' E 018°59'0 0.0
2018-Jul-15 09:30N 69°39' E 018°59'0 0.0
2018-Jul-15 09:00N 69°39' E 018°59'0 0.0
2018-Jul-15 08:30N 69°39' E 018°59'0 0.0
2018-Jul-15 07:59N 69°39' E 018°59'0 0.0
2018-Jul-15 07:30N 69°39' E 018°59'0 0.0
2018-Jul-15 07:00N 69°39' E 018°59'0 0.0
2018-Jul-15 06:30N 69°39' E 018°59'0 0.0
2018-Jul-15 06:00N 69°39' E 018°59'0 0.0
2018-Jul-15 05:30N 69°39' E 018°59'0 0.0
2018-Jul-15 05:00N 69°39' E 018°59'0 0.0
2018-Jul-15 04:30N 69°39' E 018°59'0 0.0
2018-Jul-15 04:00N 69°39' E 018°59'0 0.0
2018-Jul-15 03:28N 69°39' E 018°59'0 0.0
2018-Jul-15 03:00N 69°39' E 018°59'0 0.0
2018-Jul-15 02:30N 69°39' E 018°59'0 0.0
2018-Jul-15 02:00N 69°39' E 018°59'0 0.0
2018-Jul-15 01:29N 69°39' E 018°59'0 0.0
2018-Jul-15 01:00N 69°39' E 018°59'0 0.0
2018-Jul-15 00:30N 69°39' E 018°59'0 0.0
2018-Jul-15 00:00N 69°39' E 018°59'0 0.0
2018-Jul-14 23:30N 69°39' E 018°59'0 0.0
2018-Jul-14 23:00N 69°39' E 018°59'0 0.0
2018-Jul-14 22:30N 69°39' E 018°59'0 0.0
2018-Jul-14 21:59N 69°39' E 018°59'0 0.0
2018-Jul-14 21:30N 69°39' E 018°59'0 0.0
2018-Jul-14 21:00N 69°39' E 018°59'0 0.0
2018-Jul-14 20:30N 69°39' E 018°59'0 0.0
2018-Jul-14 20:01N 69°39' E 018°59'0 0.0
2018-Jul-14 19:30N 69°39' E 018°59'0 0.0
2018-Jul-14 19:00N 69°39' E 018°59'0 0.0
2018-Jul-14 18:29N 69°39' E 018°59'0 0.0
2018-Jul-14 18:00N 69°39' E 018°59'0 0.0
2018-Jul-14 17:30N 69°39' E 018°59'0 0.0
2018-Jul-14 16:59N 69°39' E 018°59'0 0.0
2018-Jul-14 16:30N 69°39' E 018°59'0 0.0
2018-Jul-14 16:00N 69°39' E 018°59'0 0.0
2018-Jul-14 15:30N 69°39' E 018°59'0 0.0
2018-Jul-14 15:00N 69°39' E 018°59'0 0.0
2018-Jul-14 14:00N 69°39' E 018°59'0 0.0
2018-Jul-14 13:30N 69°39' E 018°59'0 0.0
2018-Jul-14 13:00N 69°39' E 018°59'0 0.0
2018-Jul-14 12:30N 69°39' E 018°59'0 0.0
2018-Jul-14 12:01N 69°39' E 018°59'0 0.0
2018-Jul-14 11:29N 69°39' E 018°59'0 0.0
2018-Jul-14 11:01N 69°39' E 018°59'0 0.0
2018-Jul-14 10:30N 69°39' E 018°59'0 0.0
2018-Jul-14 10:00N 69°39' E 018°59'0 0.0
2018-Jul-14 09:29N 69°39' E 018°59'0 0.0
2018-Jul-14 09:00N 69°39' E 018°59'0 0.0
2018-Jul-14 08:30N 69°39' E 018°59'0 0.0
2018-Jul-14 08:00N 69°39' E 018°59'0 0.0
2018-Jul-14 07:30N 69°39' E 018°59'0 0.0
2018-Jul-14 07:00N 69°39' E 018°59'0 0.0
2018-Jul-14 06:29N 69°39' E 018°59'0 0.0
2018-Jul-14 06:00N 69°39' E 018°59'0 0.0
2018-Jul-14 05:30N 69°39' E 018°59'0 0.0
2018-Jul-14 05:00N 69°39' E 018°59'0 0.0
2018-Jul-14 04:30N 69°39' E 018°59'0 0.0
2018-Jul-14 04:00N 69°39' E 018°59'0 0.0
2018-Jul-14 03:31N 69°39' E 018°59'0 0.0
2018-Jul-14 03:00N 69°39' E 018°59'0 0.0
2018-Jul-14 02:30N 69°39' E 018°59'0 0.0
2018-Jul-14 01:59N 69°39' E 018°59'0 0.0
2018-Jul-14 01:30N 69°39' E 018°59'0 0.0
2018-Jul-14 01:00N 69°39' E 018°59'0 0.0
2018-Jul-14 00:31N 69°39' E 018°59'0 0.0
2018-Jul-14 00:00N 69°39' E 018°59'0 0.0
2018-Jul-13 23:30N 69°39' E 018°59'0 0.0
2018-Jul-13 23:00N 69°39' E 018°59'0 0.0
2018-Jul-13 22:30N 69°39' E 018°59'0 0.0
2018-Jul-13 22:00N 69°39' E 018°59'0 0.0
2018-Jul-13 21:31N 69°39' E 018°59'0 0.0
2018-Jul-13 21:00N 69°39' E 018°59'0 0.0
2018-Jul-13 20:29N 69°39' E 018°59'0 0.0
2018-Jul-13 20:00N 69°39' E 018°59'0 0.0
2018-Jul-13 19:30N 69°39' E 018°59'0 0.0
2018-Jul-13 18:59N 69°39' E 018°59'0 0.0
2018-Jul-13 18:30N 69°39' E 018°59'0 0.0
2018-Jul-13 18:00N 69°39' E 018°59'0 0.0
2018-Jul-13 17:30N 69°39' E 018°59'0 0.0
2018-Jul-13 17:00N 69°39' E 018°59'0 0.0
2018-Jul-13 16:30N 69°39' E 018°59'0 0.0
2018-Jul-13 16:00N 69°39' E 018°59'0 0.0
2018-Jul-13 15:30N 69°39' E 018°59'0 0.0
2018-Jul-13 15:00N 69°39' E 018°59'0 0.0
2018-Jul-13 14:01N 69°39' E 018°59'0 0.0
2018-Jul-13 13:29N 69°39' E 018°59'0 0.0
2018-Jul-13 13:00N 69°39' E 018°59'0 0.0
2018-Jul-13 12:29N 69°39' E 018°59'0 0.0
2018-Jul-13 12:00N 69°39' E 018°59'0 0.0
2018-Jul-13 11:30N 69°39' E 018°59'0 0.0
2018-Jul-13 11:00N 69°39' E 018°59'0 0.0
2018-Jul-13 10:31N 69°39' E 018°59'0 0.0
2018-Jul-13 10:00N 69°39' E 018°59'0 0.0
2018-Jul-13 09:31N 69°39' E 018°59'0 0.0
2018-Jul-13 09:00N 69°39' E 018°59'0 0.0
2018-Jul-13 08:30N 69°39' E 018°59'0 0.0
2018-Jul-13 08:00N 69°39' E 018°59'0 0.0
2018-Jul-13 07:30N 69°39' E 018°59'0 0.0
2018-Jul-13 07:00N 69°39' E 018°59'0 0.0
2018-Jul-13 06:29N 69°39' E 018°59'0 0.0
2018-Jul-13 06:00N 69°39' E 018°59'0 0.0
2018-Jul-13 05:30N 69°39' E 018°59'0 0.0
2018-Jul-13 05:00N 69°39' E 018°59'0 0.0
2018-Jul-13 04:30N 69°39' E 018°59'0 0.0
2018-Jul-13 04:00N 69°39' E 018°59'0 0.0
2018-Jul-13 03:30N 69°39' E 018°59'0 0.0
2018-Jul-13 03:01N 69°39' E 018°59'0 0.0
2018-Jul-13 02:30N 69°39' E 018°59'0 0.0
2018-Jul-13 02:00N 69°39' E 018°59'0 0.0
2018-Jul-13 01:30N 69°39' E 018°59'0 0.0
2018-Jul-13 01:00N 69°39' E 018°59'0 0.0
2018-Jul-13 00:31N 69°39' E 018°59'0 0.0
2018-Jul-13 00:00N 69°39' E 018°59'0 0.0
2018-Jul-12 23:30N 69°39' E 018°59'0 0.0
2018-Jul-12 23:01N 69°39' E 018°59'0 0.0
2018-Jul-12 22:30N 69°39' E 018°59'0 0.0
2018-Jul-12 22:00N 69°39' E 018°59'0 0.0
2018-Jul-12 21:30N 69°39' E 018°59'0 0.0
2018-Jul-12 21:00N 69°39' E 018°59'0 0.0
2018-Jul-12 20:30N 69°39' E 018°59'0 0.0
2018-Jul-12 20:00N 69°39' E 018°59'0 0.0
2018-Jul-12 19:30N 69°39' E 018°59'0 0.0
2018-Jul-12 19:00N 69°39' E 018°59'0 0.0
2018-Jul-12 18:29N 69°39' E 018°59'0 0.0
2018-Jul-12 18:00N 69°39' E 018°59'0 0.0
2018-Jul-12 17:30N 69°39' E 018°59'0 0.0
2018-Jul-12 17:01N 69°39' E 018°59'0 0.0
2018-Jul-12 16:31N 69°39' E 018°59'0 0.0
2018-Jul-12 16:01N 69°39' E 018°59'0 0.0
2018-Jul-12 15:31N 69°39' E 018°59'0 0.0
2018-Jul-12 15:00N 69°39' E 018°59'0 0.0
2018-Jul-12 14:30N 69°39' E 018°59'0 0.0
2018-Jul-12 13:59N 69°39' E 018°59'0 0.0
2018-Jul-12 13:30N 69°39' E 018°59'0 0.0
2018-Jul-12 13:00N 69°39' E 018°59'0 0.0
2018-Jul-12 12:30N 69°39' E 018°59'0 0.0
2018-Jul-12 12:00N 69°39' E 018°59'0 0.0
2018-Jul-12 11:28N 69°39' E 018°59'0 0.0
2018-Jul-12 11:00N 69°39' E 018°59'0 0.0
2018-Jul-12 10:30N 69°39' E 018°59'0 0.0
2018-Jul-12 10:01N 69°39' E 018°59'0 0.0
2018-Jul-12 09:30N 69°39' E 018°59'0 0.0
2018-Jul-12 09:00N 69°39' E 018°59'0 0.0
2018-Jul-12 08:30N 69°39' E 018°59'0 0.0
2018-Jul-12 08:01N 69°39' E 018°59'0 0.0
2018-Jul-12 07:30N 69°39' E 018°59'0 0.0
2018-Jul-12 07:00N 69°39' E 018°59'0 0.0
2018-Jul-12 06:30N 69°39' E 018°59'0 0.0
2018-Jul-12 06:00N 69°39' E 018°59'0 0.0
2018-Jul-12 05:30N 69°39' E 018°59'0 0.0
2018-Jul-12 04:59N 69°39' E 018°59'0 0.0
2018-Jul-12 04:30N 69°39' E 018°59'0 0.0
2018-Jul-12 04:00N 69°39' E 018°59'0 0.0
2018-Jul-12 03:31N 69°39' E 018°59'0 0.0
2018-Jul-12 03:00N 69°39' E 018°59'0 0.0
2018-Jul-12 02:30N 69°39' E 018°59'0 0.0
2018-Jul-12 02:00N 69°39' E 018°59'0 0.0
2018-Jul-12 01:30N 69°39' E 018°59'0 0.0
2018-Jul-12 01:00N 69°39' E 018°59'0 0.0
2018-Jul-12 00:30N 69°39' E 018°59'0 0.0
2018-Jul-12 00:00N 69°39' E 018°59'0 0.0
2018-Jul-11 23:30N 69°39' E 018°59'0 0.0
2018-Jul-11 23:01N 69°39' E 018°59'0 0.0
2018-Jul-11 22:30N 69°39' E 018°59'0 0.0
2018-Jul-11 22:00N 69°39' E 018°59'0 0.0
2018-Jul-11 21:29N 69°39' E 018°59'0 0.0
2018-Jul-11 21:00N 69°39' E 018°59'0 0.0
2018-Jul-11 20:30N 69°39' E 018°59'0 0.0
2018-Jul-11 20:00N 69°39' E 018°59'0 0.0
2018-Jul-11 19:30N 69°39' E 018°59'0 0.0
2018-Jul-11 19:00N 69°39' E 018°59'0 0.0
2018-Jul-11 18:29N 69°39' E 018°59'0 0.0
2018-Jul-11 18:00N 69°39' E 018°59'0 0.0
2018-Jul-11 17:30N 69°39' E 018°59'0 0.0
2018-Jul-11 17:00N 69°39' E 018°59'0 0.0
2018-Jul-11 16:30N 69°39' E 018°59'0 0.0
2018-Jul-11 15:59N 69°39' E 018°59'0 0.0
2018-Jul-11 15:29N 69°39' E 018°59'0 0.0
2018-Jul-11 15:00N 69°39' E 018°59'0 0.0
2018-Jul-11 14:30N 69°39' E 018°59'0 0.0
2018-Jul-11 14:01N 69°39' E 018°59'0 0.0
2018-Jul-11 13:30N 69°39' E 018°59'0 0.0
2018-Jul-11 13:00N 69°39' E 018°59'0 0.0
2018-Jul-11 12:30N 69°39' E 018°59'0 0.0
2018-Jul-11 12:00N 69°39' E 018°59'0 0.0
2018-Jul-11 11:30N 69°39' E 018°59'0 0.0
2018-Jul-11 10:56N 69°39' E 018°59'0 0.0
2018-Jul-11 10:30N 69°39' E 018°59'0 0.0
2018-Jul-11 10:00N 69°39' E 018°59'0 0.0
2018-Jul-11 09:31N 69°39' E 018°59'0 0.0
2018-Jul-11 09:00N 69°39' E 018°59'0 0.0
2018-Jul-11 08:30N 69°39' E 018°59'0 0.0
2018-Jul-11 07:59N 69°39' E 018°59'0 0.0
2018-Jul-11 07:30N 69°39' E 018°59'0 0.0
2018-Jul-11 07:00N 69°39' E 018°59'0 0.0
2018-Jul-11 06:30N 69°39' E 018°59'0 0.0
2018-Jul-11 06:00N 69°39' E 018°59'0 0.0
2018-Jul-11 05:30N 69°39' E 018°59'0 0.0
2018-Jul-11 05:00N 69°39' E 018°59'0 0.0
2018-Jul-11 04:30N 69°39' E 018°59'0 0.0
2018-Jul-11 04:00N 69°39' E 018°59'0 0.0
2018-Jul-11 03:31N 69°39' E 018°59'0 0.0
2018-Jul-11 03:01N 69°39' E 018°59'0 0.0
2018-Jul-11 02:30N 69°39' E 018°59'0 0.0
2018-Jul-11 02:00N 69°39' E 018°59'0 0.0
2018-Jul-11 01:30N 69°39' E 018°59'0 0.0
2018-Jul-11 01:00N 69°39' E 018°59'0 0.0
2018-Jul-11 00:29N 69°39' E 018°59'0 0.0
2018-Jul-11 00:00N 69°39' E 018°59'0 0.0
2018-Jul-10 23:30N 69°39' E 018°59'0 0.0
2018-Jul-10 23:00N 69°39' E 018°59'0 0.0
2018-Jul-10 22:30N 69°39' E 018°59'0 0.0
2018-Jul-10 22:00N 69°39' E 018°59'0 0.0
2018-Jul-10 21:30N 69°39' E 018°59'0 0.0
2018-Jul-10 21:00N 69°39' E 018°59'0 0.0
2018-Jul-10 20:30N 69°39' E 018°59'0 0.0
2018-Jul-10 20:00N 69°39' E 018°59'0 0.0
2018-Jul-10 19:30N 69°39' E 018°59'0 0.0
2018-Jul-10 19:00N 69°39' E 018°59'0 0.0
2018-Jul-10 18:31N 69°39' E 018°59'0 0.0
2018-Jul-10 18:00N 69°39' E 018°59'0 0.0
2018-Jul-10 17:30N 69°39' E 018°59'0 0.0
2018-Jul-10 17:00N 69°39' E 018°59'0 0.0
2018-Jul-10 16:30N 69°39' E 018°59'0 0.0
2018-Jul-10 16:00N 69°39' E 018°59'0 0.0
2018-Jul-10 15:30N 69°39' E 018°59'0 0.0
2018-Jul-10 15:00N 69°39' E 018°59'0 0.0
2018-Jul-10 14:30N 69°39' E 018°59'0 0.0
2018-Jul-10 14:00N 69°39' E 018°59'0 0.0
2018-Jul-10 13:30N 69°39' E 018°59'0 0.0
2018-Jul-10 13:00N 69°39' E 018°59'0 0.0
2018-Jul-10 12:31N 69°39' E 018°59'0 0.0
2018-Jul-10 11:59N 69°39' E 018°59'0 0.0
2018-Jul-10 11:30N 69°39' E 018°59'0 0.0
2018-Jul-10 11:00N 69°39' E 018°59'0 0.0
2018-Jul-10 10:30N 69°39' E 018°59'0 0.0
2018-Jul-10 10:00N 69°39' E 018°59'0 0.0
2018-Jul-10 09:30N 69°39' E 018°59'0 0.0
2018-Jul-10 09:00N 69°39' E 018°59'0 0.0
2018-Jul-10 08:30N 69°39' E 018°59'0 0.0
2018-Jul-10 07:59N 69°39' E 018°59'0 0.0
2018-Jul-10 07:30N 69°39' E 018°59'0 0.0
2018-Jul-10 07:00N 69°39' E 018°59'0 0.0
2018-Jul-10 06:30N 69°39' E 018°59'0 0.0
2018-Jul-10 06:01N 69°39' E 018°59'0 0.0
2018-Jul-10 05:30N 69°39' E 018°59'0 0.0
2018-Jul-10 05:01N 69°39' E 018°59'0 0.0
2018-Jul-10 04:30N 69°39' E 018°59'0 0.0
2018-Jul-10 04:01N 69°39' E 018°59'0 0.0
2018-Jul-10 03:30N 69°39' E 018°59'0 0.0
2018-Jul-10 03:00N 69°39' E 018°59'0 0.0
2018-Jul-10 02:29N 69°39' E 018°59'0 0.0
2018-Jul-10 02:00N 69°39' E 018°59'0 0.0
2018-Jul-10 01:30N 69°39' E 018°59'0 0.0
2018-Jul-10 01:01N 69°39' E 018°59'0 0.0
2018-Jul-10 00:30N 69°39' E 018°59'0 0.0
2018-Jul-10 00:00N 69°39' E 018°59'0 0.0
2018-Jul-09 23:30N 69°39' E 018°59'0 0.0
2018-Jul-09 23:00N 69°39' E 018°59'0 0.0
2018-Jul-09 22:30N 69°39' E 018°59'0 0.0
2018-Jul-09 22:00N 69°39' E 018°59'0 0.0
2018-Jul-09 21:30N 69°39' E 018°59'0 0.0
2018-Jul-09 20:59N 69°39' E 018°59'0 0.0
2018-Jul-09 20:30N 69°39' E 018°59'0 0.0
2018-Jul-09 20:00N 69°39' E 018°59'0 0.0
2018-Jul-09 19:30N 69°39' E 018°59'0 0.0
2018-Jul-09 19:00N 69°39' E 018°59'0 0.0
2018-Jul-09 18:29N 69°39' E 018°59'0 0.0
2018-Jul-09 17:59N 69°39' E 018°59'0 0.0
2018-Jul-09 17:30N 69°39' E 018°59'0 0.0
2018-Jul-09 17:00N 69°39' E 018°59'0 0.0
2018-Jul-09 16:30N 69°39' E 018°59'0 0.0
2018-Jul-09 16:00N 69°39' E 018°59'0 0.0
2018-Jul-09 15:31N 69°39' E 018°59'0 0.0
2018-Jul-09 14:58N 69°39' E 018°59'0 0.0
2018-Jul-09 14:30N 69°39' E 018°59'0 0.0
2018-Jul-09 14:00N 69°39' E 018°59'0 0.0
2018-Jul-09 13:30N 69°39' E 018°59'0 0.0
2018-Jul-09 13:00N 69°39' E 018°59'0 0.9
2018-Jul-09 12:30N 69°39' E 018°58'0 0.0
2018-Jul-09 12:00N 69°39' E 018°58'0 0.0
2018-Jul-09 11:30N 69°39' E 018°58'0 0.0
2018-Jul-09 11:00N 69°39' E 018°58'0 0.0
2018-Jul-09 10:30N 69°39' E 018°58'0 0.0
2018-Jul-09 10:00N 69°39' E 018°58'0 0.0
2018-Jul-09 09:30N 69°39' E 018°58'0 0.0
2018-Jul-09 09:00N 69°39' E 018°58'0 0.0
2018-Jul-09 08:30N 69°39' E 018°58'0 0.0
2018-Jul-09 08:01N 69°39' E 018°58'0 0.0
2018-Jul-09 07:30N 69°39' E 018°58'0 0.0
2018-Jul-09 07:00N 69°39' E 018°58'0 0.0
2018-Jul-09 06:30N 69°39' E 018°58'0 0.0
2018-Jul-09 05:59N 69°39' E 018°58'0 0.0
2018-Jul-09 05:30N 69°39' E 018°58'0 0.0
2018-Jul-09 05:01N 69°39' E 018°58'  

Dump ship's entire track history